Tanja Kosan — ZIQT6 — position and weather

sailwx.info

Track history (hours):
 
Tides and Currents Weather Stations Pressure Air Temp Water Temp Dewpoint Dewpoint Depression Visibility Wind Speed Wind Dir Waves Ship Positions

Tanja Kosan

Last reported at 2018-Feb-17 23:30 UTC. Time now 2018-Feb-17 23:47 UTC.
Position N 51°20' E 002°36'.

Length 107 m; draft 5.9 m.

Type: Ship. MMSI: 235509000.

Date/timePositionNaut miles runAvg speedWind from/ knotsBaromVisibWave heightAir tempDewpointWater temp
2018-Feb-17 23:30N 51°20' E 002°36'0 0.0
2018-Feb-17 23:00N 51°20' E 002°36'0 0.0
2018-Feb-17 22:30N 51°20' E 002°36'0 0.1
2018-Feb-17 22:00N 51°20' E 002°36'0 0.2
2018-Feb-17 21:29N 51°20' E 002°36'0 0.6
2018-Feb-17 21:00N 51°20' E 002°36'4 7.5
2018-Feb-17 20:30N 51°23' E 002°32'611.3
2018-Feb-17 20:00N 51°21' E 002°23'611.7
2018-Feb-17 19:30N 51°18' E 002°16'612.3
2018-Feb-17 19:00N 51°14' E 002°07'612.6
2018-Feb-17 18:30N 51°11' E 001°59'612.7
2018-Feb-17 18:00N 51°08' E 001°50'612.7
2018-Feb-17 17:30N 51°04' E 001°42'713.3
2018-Feb-17 17:00N 50°59' E 001°35'714.2
2018-Feb-17 16:30N 50°54' E 001°27'714.5
2018-Feb-17 16:00N 50°47' E 001°24'713.5
2018-Feb-17 15:30N 50°41' E 001°19'714.0
2018-Feb-17 14:58N 50°36' E 001°10'713.8
2018-Feb-17 14:30N 50°31' E 001°03'1513.4
2018-Feb-17 13:22N 50°26' E 000°41'613.7
2018-Feb-17 12:58N 50°24' E 000°33'613.8
2018-Feb-17 12:30N 50°22' E 000°23'714.1
2018-Feb-17 12:00N 50°20' E 000°12'714.5
2018-Feb-17 11:31N 50°19' E 000°01'714.9
2018-Feb-17 11:00N 50°18' W 000°10'815.9
2018-Feb-17 10:30N 50°15' W 000°22'816.3
2018-Feb-17 09:59N 50°12' W 000°35'1016.5
2018-Feb-17 09:23N 50°09' W 000°50'616.4
2018-Feb-17 09:00N 50°08' W 000°59'816.6
2018-Feb-17 08:30N 50°06' W 001°11'816.5
2018-Feb-17 08:01N 50°04' W 001°24'816.0
2018-Feb-17 07:31N 50°02' W 001°36'815.3
2018-Feb-17 07:01N 50°00' W 001°47'815.4
2018-Feb-17 06:30N 49°59' W 001°59'714.5
2018-Feb-17 06:00N 49°57' W 002°10'913.5
2018-Feb-17 05:21N 49°54' W 002°23'1512.8
2018-Feb-17 04:09N 49°50' W 002°46'212.4
2018-Feb-17 04:00N 49°49' W 002°49'712.1
2018-Feb-17 03:28N 49°46' W 002°58'611.9
2018-Feb-17 03:00N 49°44' W 003°05'611.9
2018-Feb-17 02:29N 49°40' W 003°13'6911.9
2018-Feb-16 20:44N 49°07' W 004°45'412.7
2018-Feb-16 20:23N 49°05' W 004°51'713.0
2018-Feb-16 19:53N 49°01' W 004°60'513.3
2018-Feb-16 19:29N 48°59' W 005°07'713.6
2018-Feb-16 18:58N 48°55' W 005°16'714.1
2018-Feb-16 18:28N 48°52' W 005°25'714.4
2018-Feb-16 18:00N 48°48' W 005°34'714.2
2018-Feb-16 17:29N 48°42' W 005°40'714.7
2018-Feb-16 17:00N 48°36' W 005°45'714.9
2018-Feb-16 16:30N 48°29' W 005°51'1115.0
2018-Feb-16 15:48N 48°20' W 005°59'1415.0
2018-Feb-16 14:53N 48°08' W 006°09'815.1
2018-Feb-16 14:22N 48°01' W 006°15'714.9
2018-Feb-16 13:53N 47°55' W 006°20'52912.4
2018-Feb-14 19:04N 39°30' W 009°57'412.3
2018-Feb-14 18:44N 39°26' W 009°57'312.2
2018-Feb-14 18:30N 39°23' W 009°57'612.1
2018-Feb-14 18:00N 39°17' W 009°57'612.5
2018-Feb-14 17:30N 39°11' W 009°57'612.5
2018-Feb-14 17:00N 39°04' W 009°57'612.6
2018-Feb-14 16:30N 38°58' W 009°57'612.5
2018-Feb-14 16:00N 38°52' W 009°57'612.5
2018-Feb-14 15:30N 38°46' W 009°57'612.0
2018-Feb-14 15:00N 38°40' W 009°56'611.9
2018-Feb-14 14:30N 38°34' W 009°52'611.5
2018-Feb-14 14:00N 38°30' W 009°47'612.1
2018-Feb-14 13:30N 38°26' W 009°41'612.1
2018-Feb-14 12:59N 38°22' W 009°35'612.2
2018-Feb-14 12:30N 38°18' W 009°30'612.4
2018-Feb-14 12:00N 38°14' W 009°24'612.2
2018-Feb-14 11:30N 38°10' W 009°18'612.2
2018-Feb-14 11:00N 38°06' W 009°12'612.2
2018-Feb-14 10:30N 38°02' W 009°07'612.1
2018-Feb-14 10:00N 37°58' W 009°01'611.4
2018-Feb-14 09:30N 37°55' W 008°55'3 5.3
2018-Feb-14 09:00N 37°57' W 008°53'0 0.0
2018-Feb-14 08:29N 37°57' W 008°53'0 0.0
2018-Feb-14 08:00N 37°57' W 008°53'0 0.0
2018-Feb-14 07:30N 37°57' W 008°53'0 0.0
2018-Feb-14 07:00N 37°57' W 008°53'0 0.0
2018-Feb-14 06:27N 37°57' W 008°53'0 0.0
2018-Feb-14 06:00N 37°57' W 008°53'0 0.0
2018-Feb-14 05:30N 37°57' W 008°53'0 0.0
2018-Feb-14 05:00N 37°57' W 008°53'0 0.0
2018-Feb-14 04:30N 37°57' W 008°53'0 0.0
2018-Feb-14 04:00N 37°57' W 008°53'0 0.0
2018-Feb-14 03:30N 37°57' W 008°53'0 0.0
2018-Feb-14 03:00N 37°57' W 008°53'0 0.0
2018-Feb-14 02:30N 37°57' W 008°53'0 0.0
2018-Feb-14 02:00N 37°57' W 008°53'0 0.0
2018-Feb-14 01:30N 37°57' W 008°53'0 0.0
2018-Feb-14 01:00N 37°57' W 008°53'0 0.0
2018-Feb-14 00:30N 37°57' W 008°53'0 0.0
2018-Feb-14 00:00N 37°57' W 008°53'0 0.0
2018-Feb-13 23:30N 37°57' W 008°53'0 0.0
2018-Feb-13 23:00N 37°57' W 008°53'0 0.0
2018-Feb-13 22:30N 37°57' W 008°53'0 0.0
2018-Feb-13 22:00N 37°57' W 008°53'0 0.0
2018-Feb-13 21:30N 37°57' W 008°53'0 0.0
2018-Feb-13 21:00N 37°57' W 008°53'0 0.0
2018-Feb-13 20:30N 37°57' W 008°53'0 0.0
2018-Feb-13 20:00N 37°57' W 008°53'0 0.0
2018-Feb-13 19:30N 37°57' W 008°53'0 0.0
2018-Feb-13 19:00N 37°57' W 008°53'0 0.0
2018-Feb-13 18:30N 37°57' W 008°53'0 0.0
2018-Feb-13 18:00N 37°57' W 008°53'0 0.0
2018-Feb-13 17:27N 37°57' W 008°53'0 0.0
2018-Feb-13 17:00N 37°57' W 008°53'0 0.0
2018-Feb-13 16:30N 37°57' W 008°53'0 0.0
2018-Feb-13 15:57N 37°57' W 008°53'1 2.3
2018-Feb-13 15:30N 37°56' W 008°53'2 4.4
2018-Feb-13 15:00N 37°54' W 008°54'5 9.0
2018-Feb-13 14:30N 37°52' W 008°59'510.9
2018-Feb-13 14:00N 37°49' W 009°05'611.1
2018-Feb-13 13:30N 37°46' W 009°11'2 4.4
2018-Feb-13 13:00N 37°46' W 009°14'1 1.6
2018-Feb-13 12:30N 37°46' W 009°14'1 1.5
2018-Feb-13 12:00N 37°47' W 009°14'1 1.4
2018-Feb-13 11:30N 37°48' W 009°14'1 1.4
2018-Feb-13 11:00N 37°49' W 009°14'1 1.4
2018-Feb-13 10:30N 37°49' W 009°14'1 1.3
2018-Feb-13 10:00N 37°50' W 009°14'1 1.3
2018-Feb-13 09:30N 37°51' W 009°14'1 1.4
2018-Feb-13 09:00N 37°51' W 009°14'1 1.5
2018-Feb-13 08:30N 37°52' W 009°14'1 1.4
2018-Feb-13 08:00N 37°53' W 009°14'1 1.2
2018-Feb-13 07:30N 37°53' W 009°14'1 1.1
2018-Feb-13 07:00N 37°54' W 009°14'0 0.9
2018-Feb-13 06:30N 37°54' W 009°13'611.5
2018-Feb-13 06:00N 37°54' W 009°06'713.3
2018-Feb-13 05:30N 37°54' W 008°58'4 8.9
2018-Feb-13 05:00N 37°57' W 008°53'0 0.5
2018-Feb-13 04:28N 37°57' W 008°53'0 0.0
2018-Feb-13 03:58N 37°57' W 008°53'0 0.0
2018-Feb-13 03:28N 37°57' W 008°53'0 0.0
2018-Feb-13 02:58N 37°57' W 008°53'0 0.0
2018-Feb-13 02:28N 37°57' W 008°53'0 0.0
2018-Feb-13 01:58N 37°57' W 008°53'0 0.0
2018-Feb-13 01:28N 37°57' W 008°53'0 0.0
2018-Feb-13 00:58N 37°57' W 008°53'0 0.0
2018-Feb-13 00:28N 37°57' W 008°53'0 0.0
2018-Feb-12 23:58N 37°57' W 008°53'0 0.0
2018-Feb-12 23:28N 37°57' W 008°53'0 0.0
2018-Feb-12 22:58N 37°57' W 008°53'0 0.3
2018-Feb-12 22:30N 37°57' W 008°53'2 3.2
2018-Feb-12 22:01N 37°55' W 008°53'3 5.2
2018-Feb-12 21:30N 37°53' W 008°54'510.0
2018-Feb-12 21:01N 37°54' W 009°00'611.4
2018-Feb-12 20:31N 37°56' W 009°07'612.3
2018-Feb-12 20:01N 37°59' W 009°14'713.7
2018-Feb-12 19:31N 38°03' W 009°21'714.7
2018-Feb-12 19:01N 38°08' W 009°28'714.6
2018-Feb-12 18:30N 38°12' W 009°36'714.7
2018-Feb-12 18:01N 38°17' W 009°43'714.0
2018-Feb-12 17:30N 38°21' W 009°50'713.9
2018-Feb-12 17:01N 38°26' W 009°57'714.0
2018-Feb-12 16:30N 38°30' W 010°04'1314.0
2018-Feb-12 15:34N 38°42' W 010°11'114.7
2018-Feb-12 15:30N 38°43' W 010°11'714.6
2018-Feb-12 15:01N 38°50' W 010°11'714.3
2018-Feb-12 14:31N 38°57' W 010°11'714.2
2018-Feb-12 14:00N 39°04' W 010°12'713.9
2018-Feb-12 13:30N 39°11' W 010°12'  
2018-Feb-10 02:43N 49°44' W 003°37'312.9
2018-Feb-10 02:28N 49°46' W 003°32'612.7
2018-Feb-10 02:01N 49°49' W 003°25'612.7
2018-Feb-10 01:30N 49°52' W 003°16'612.8
2018-Feb-10 01:00N 49°56' W 003°08'713.1
2018-Feb-10 00:31N 49°59' W 002°59'713.2
2018-Feb-10 00:01N 50°00' W 002°49'713.5
2018-Feb-09 23:30N 50°02' W 002°39'2012.8
2018-Feb-09 21:57N 50°07' W 002°09'512.5
2018-Feb-09 21:30N 50°09' W 002°01'612.5
2018-Feb-09 21:01N 50°10' W 001°51'612.3
2018-Feb-09 20:31N 50°12' W 001°42'1211.6
2018-Feb-09 19:31N 50°15' W 001°24'510.8
2018-Feb-09 19:01N 50°16' W 001°16'32 9.2
2018-Feb-09 15:30N 50°25' W 000°28'4 9.0
2018-Feb-09 15:00N 50°26' W 000°21'1510.3
2018-Feb-09 13:30N 50°30' E 000°02'2911.5
2018-Feb-09 11:00N 50°41' E 000°44'611.6
2018-Feb-09 10:30N 50°45' E 000°51'1010.4
2018-Feb-09 09:30N 50°52' E 001°03'18 7.3
2018-Feb-09 07:00N 51°03' E 001°26'3 6.7
2018-Feb-09 06:30N 51°05' E 001°30'9 8.5
2018-Feb-09 05:30N 51°11' E 001°40'1711.0
2018-Feb-09 04:00N 51°24' E 001°55'612.7
2018-Feb-09 03:30N 51°29' E 002°02'713.1
2018-Feb-09 03:01N 51°34' E 002°09'713.4
2018-Feb-09 02:30N 51°39' E 002°16'8412.0
2018-Feb-08 19:30N 52°31' E 004°03'612.5
2018-Feb-08 19:00N 52°31' E 004°13'713.2
2018-Feb-08 18:30N 52°30' E 004°24'14 7.0
2018-Feb-08 16:30N 52°26' E 004°46'3 0.8
2018-Feb-08 12:30N 52°25' E 004°51'  
Track history (hours):
 
Tides and Currents Weather Stations Pressure Air Temp Water Temp Dewpoint Dewpoint Depression Visibility Wind Speed Wind Dir Waves Ship Positions

Tanja Kosan

Last reported at 2018-Feb-17 23:30 UTC. Time now 2018-Feb-17 23:47 UTC.
Position N 51°20' E 002°36'.

Length 107 m; draft 5.9 m.

Type: Ship. MMSI: 235509000.

Date/timePositionNaut miles runAvg speedWind from/ knotsBaromVisibWave heightAir tempDewpointWater temp
2018-Feb-17 23:30N 51°20' E 002°36'0 0.0
2018-Feb-17 23:00N 51°20' E 002°36'0 0.0
2018-Feb-17 22:30N 51°20' E 002°36'0 0.1
2018-Feb-17 22:00N 51°20' E 002°36'0 0.2
2018-Feb-17 21:29N 51°20' E 002°36'0 0.6
2018-Feb-17 21:00N 51°20' E 002°36'4 7.5
2018-Feb-17 20:30N 51°23' E 002°32'611.3
2018-Feb-17 20:00N 51°21' E 002°23'611.7
2018-Feb-17 19:30N 51°18' E 002°16'612.3
2018-Feb-17 19:00N 51°14' E 002°07'612.6
2018-Feb-17 18:30N 51°11' E 001°59'612.7
2018-Feb-17 18:00N 51°08' E 001°50'612.7
2018-Feb-17 17:30N 51°04' E 001°42'713.3
2018-Feb-17 17:00N 50°59' E 001°35'714.2
2018-Feb-17 16:30N 50°54' E 001°27'714.5
2018-Feb-17 16:00N 50°47' E 001°24'713.5
2018-Feb-17 15:30N 50°41' E 001°19'714.0
2018-Feb-17 14:58N 50°36' E 001°10'713.8
2018-Feb-17 14:30N 50°31' E 001°03'1513.4
2018-Feb-17 13:22N 50°26' E 000°41'613.7
2018-Feb-17 12:58N 50°24' E 000°33'613.8
2018-Feb-17 12:30N 50°22' E 000°23'714.1
2018-Feb-17 12:00N 50°20' E 000°12'714.5
2018-Feb-17 11:31N 50°19' E 000°01'714.9
2018-Feb-17 11:00N 50°18' W 000°10'815.9
2018-Feb-17 10:30N 50°15' W 000°22'816.3
2018-Feb-17 09:59N 50°12' W 000°35'1016.5
2018-Feb-17 09:23N 50°09' W 000°50'616.4
2018-Feb-17 09:00N 50°08' W 000°59'816.6
2018-Feb-17 08:30N 50°06' W 001°11'816.5
2018-Feb-17 08:01N 50°04' W 001°24'816.0
2018-Feb-17 07:31N 50°02' W 001°36'815.3
2018-Feb-17 07:01N 50°00' W 001°47'815.4
2018-Feb-17 06:30N 49°59' W 001°59'714.5
2018-Feb-17 06:00N 49°57' W 002°10'913.5
2018-Feb-17 05:21N 49°54' W 002°23'1512.8
2018-Feb-17 04:09N 49°50' W 002°46'212.4
2018-Feb-17 04:00N 49°49' W 002°49'712.1
2018-Feb-17 03:28N 49°46' W 002°58'611.9
2018-Feb-17 03:00N 49°44' W 003°05'611.9
2018-Feb-17 02:29N 49°40' W 003°13'6911.9
2018-Feb-16 20:44N 49°07' W 004°45'412.7
2018-Feb-16 20:23N 49°05' W 004°51'713.0
2018-Feb-16 19:53N 49°01' W 004°60'513.3
2018-Feb-16 19:29N 48°59' W 005°07'713.6
2018-Feb-16 18:58N 48°55' W 005°16'714.1
2018-Feb-16 18:28N 48°52' W 005°25'714.4
2018-Feb-16 18:00N 48°48' W 005°34'714.2
2018-Feb-16 17:29N 48°42' W 005°40'714.7
2018-Feb-16 17:00N 48°36' W 005°45'714.9
2018-Feb-16 16:30N 48°29' W 005°51'1115.0
2018-Feb-16 15:48N 48°20' W 005°59'1415.0
2018-Feb-16 14:53N 48°08' W 006°09'815.1
2018-Feb-16 14:22N 48°01' W 006°15'714.9
2018-Feb-16 13:53N 47°55' W 006°20'52912.4
2018-Feb-14 19:04N 39°30' W 009°57'412.3
2018-Feb-14 18:44N 39°26' W 009°57'312.2
2018-Feb-14 18:30N 39°23' W 009°57'612.1
2018-Feb-14 18:00N 39°17' W 009°57'612.5
2018-Feb-14 17:30N 39°11' W 009°57'612.5
2018-Feb-14 17:00N 39°04' W 009°57'612.6
2018-Feb-14 16:30N 38°58' W 009°57'612.5
2018-Feb-14 16:00N 38°52' W 009°57'612.5
2018-Feb-14 15:30N 38°46' W 009°57'612.0
2018-Feb-14 15:00N 38°40' W 009°56'611.9
2018-Feb-14 14:30N 38°34' W 009°52'611.5
2018-Feb-14 14:00N 38°30' W 009°47'612.1
2018-Feb-14 13:30N 38°26' W 009°41'612.1
2018-Feb-14 12:59N 38°22' W 009°35'612.2
2018-Feb-14 12:30N 38°18' W 009°30'612.4
2018-Feb-14 12:00N 38°14' W 009°24'612.2
2018-Feb-14 11:30N 38°10' W 009°18'612.2
2018-Feb-14 11:00N 38°06' W 009°12'612.2
2018-Feb-14 10:30N 38°02' W 009°07'612.1
2018-Feb-14 10:00N 37°58' W 009°01'611.4
2018-Feb-14 09:30N 37°55' W 008°55'3 5.3
2018-Feb-14 09:00N 37°57' W 008°53'0 0.0
2018-Feb-14 08:29N 37°57' W 008°53'0 0.0
2018-Feb-14 08:00N 37°57' W 008°53'0 0.0
2018-Feb-14 07:30N 37°57' W 008°53'0 0.0
2018-Feb-14 07:00N 37°57' W 008°53'0 0.0
2018-Feb-14 06:27N 37°57' W 008°53'0 0.0
2018-Feb-14 06:00N 37°57' W 008°53'0 0.0
2018-Feb-14 05:30N 37°57' W 008°53'0 0.0
2018-Feb-14 05:00N 37°57' W 008°53'0 0.0
2018-Feb-14 04:30N 37°57' W 008°53'0 0.0
2018-Feb-14 04:00N 37°57' W 008°53'0 0.0
2018-Feb-14 03:30N 37°57' W 008°53'0 0.0
2018-Feb-14 03:00N 37°57' W 008°53'0 0.0
2018-Feb-14 02:30N 37°57' W 008°53'0 0.0
2018-Feb-14 02:00N 37°57' W 008°53'0 0.0
2018-Feb-14 01:30N 37°57' W 008°53'0 0.0
2018-Feb-14 01:00N 37°57' W 008°53'0 0.0
2018-Feb-14 00:30N 37°57' W 008°53'0 0.0
2018-Feb-14 00:00N 37°57' W 008°53'0 0.0
2018-Feb-13 23:30N 37°57' W 008°53'0 0.0
2018-Feb-13 23:00N 37°57' W 008°53'0 0.0
2018-Feb-13 22:30N 37°57' W 008°53'0 0.0
2018-Feb-13 22:00N 37°57' W 008°53'0 0.0
2018-Feb-13 21:30N 37°57' W 008°53'0 0.0
2018-Feb-13 21:00N 37°57' W 008°53'0 0.0
2018-Feb-13 20:30N 37°57' W 008°53'0 0.0
2018-Feb-13 20:00N 37°57' W 008°53'0 0.0
2018-Feb-13 19:30N 37°57' W 008°53'0 0.0
2018-Feb-13 19:00N 37°57' W 008°53'0 0.0
2018-Feb-13 18:30N 37°57' W 008°53'0 0.0
2018-Feb-13 18:00N 37°57' W 008°53'0 0.0
2018-Feb-13 17:27N 37°57' W 008°53'0 0.0
2018-Feb-13 17:00N 37°57' W 008°53'0 0.0
2018-Feb-13 16:30N 37°57' W 008°53'0 0.0
2018-Feb-13 15:57N 37°57' W 008°53'1 2.3
2018-Feb-13 15:30N 37°56' W 008°53'2 4.4
2018-Feb-13 15:00N 37°54' W 008°54'5 9.0
2018-Feb-13 14:30N 37°52' W 008°59'510.9
2018-Feb-13 14:00N 37°49' W 009°05'611.1
2018-Feb-13 13:30N 37°46' W 009°11'2 4.4
2018-Feb-13 13:00N 37°46' W 009°14'1 1.6
2018-Feb-13 12:30N 37°46' W 009°14'1 1.5
2018-Feb-13 12:00N 37°47' W 009°14'1 1.4
2018-Feb-13 11:30N 37°48' W 009°14'1 1.4
2018-Feb-13 11:00N 37°49' W 009°14'1 1.4
2018-Feb-13 10:30N 37°49' W 009°14'1 1.3
2018-Feb-13 10:00N 37°50' W 009°14'1 1.3
2018-Feb-13 09:30N 37°51' W 009°14'1 1.4
2018-Feb-13 09:00N 37°51' W 009°14'1 1.5
2018-Feb-13 08:30N 37°52' W 009°14'1 1.4
2018-Feb-13 08:00N 37°53' W 009°14'1 1.2
2018-Feb-13 07:30N 37°53' W 009°14'1 1.1
2018-Feb-13 07:00N 37°54' W 009°14'0 0.9
2018-Feb-13 06:30N 37°54' W 009°13'611.5
2018-Feb-13 06:00N 37°54' W 009°06'713.3
2018-Feb-13 05:30N 37°54' W 008°58'4 8.9
2018-Feb-13 05:00N 37°57' W 008°53'0 0.5
2018-Feb-13 04:28N 37°57' W 008°53'0 0.0
2018-Feb-13 03:58N 37°57' W 008°53'0 0.0
2018-Feb-13 03:28N 37°57' W 008°53'0 0.0
2018-Feb-13 02:58N 37°57' W 008°53'0 0.0
2018-Feb-13 02:28N 37°57' W 008°53'0 0.0
2018-Feb-13 01:58N 37°57' W 008°53'0 0.0
2018-Feb-13 01:28N 37°57' W 008°53'0 0.0
2018-Feb-13 00:58N 37°57' W 008°53'0 0.0
2018-Feb-13 00:28N 37°57' W 008°53'0 0.0
2018-Feb-12 23:58N 37°57' W 008°53'0 0.0
2018-Feb-12 23:28N 37°57' W 008°53'0 0.0
2018-Feb-12 22:58N 37°57' W 008°53'0 0.3
2018-Feb-12 22:30N 37°57' W 008°53'2 3.2
2018-Feb-12 22:01N 37°55' W 008°53'3 5.2
2018-Feb-12 21:30N 37°53' W 008°54'510.0
2018-Feb-12 21:01N 37°54' W 009°00'611.4
2018-Feb-12 20:31N 37°56' W 009°07'612.3
2018-Feb-12 20:01N 37°59' W 009°14'713.7
2018-Feb-12 19:31N 38°03' W 009°21'714.7
2018-Feb-12 19:01N 38°08' W 009°28'714.6
2018-Feb-12 18:30N 38°12' W 009°36'714.7
2018-Feb-12 18:01N 38°17' W 009°43'714.0
2018-Feb-12 17:30N 38°21' W 009°50'713.9
2018-Feb-12 17:01N 38°26' W 009°57'714.0
2018-Feb-12 16:30N 38°30' W 010°04'1314.0
2018-Feb-12 15:34N 38°42' W 010°11'114.7
2018-Feb-12 15:30N 38°43' W 010°11'714.6
2018-Feb-12 15:01N 38°50' W 010°11'714.3
2018-Feb-12 14:31N 38°57' W 010°11'714.2
2018-Feb-12 14:00N 39°04' W 010°12'713.9
2018-Feb-12 13:30N 39°11' W 010°12'  
2018-Feb-10 02:43N 49°44' W 003°37'312.9
2018-Feb-10 02:28N 49°46' W 003°32'612.7
2018-Feb-10 02:01N 49°49' W 003°25'612.7
2018-Feb-10 01:30N 49°52' W 003°16'612.8
2018-Feb-10 01:00N 49°56' W 003°08'713.1
2018-Feb-10 00:31N 49°59' W 002°59'713.2
2018-Feb-10 00:01N 50°00' W 002°49'713.5
2018-Feb-09 23:30N 50°02' W 002°39'2012.8
2018-Feb-09 21:57N 50°07' W 002°09'512.5
2018-Feb-09 21:30N 50°09' W 002°01'612.5
2018-Feb-09 21:01N 50°10' W 001°51'612.3
2018-Feb-09 20:31N 50°12' W 001°42'1211.6
2018-Feb-09 19:31N 50°15' W 001°24'510.8
2018-Feb-09 19:01N 50°16' W 001°16'32 9.2
2018-Feb-09 15:30N 50°25' W 000°28'4 9.0
2018-Feb-09 15:00N 50°26' W 000°21'1510.3
2018-Feb-09 13:30N 50°30' E 000°02'2911.5
2018-Feb-09 11:00N 50°41' E 000°44'611.6
2018-Feb-09 10:30N 50°45' E 000°51'1010.4
2018-Feb-09 09:30N 50°52' E 001°03'18 7.3
2018-Feb-09 07:00N 51°03' E 001°26'3 6.7
2018-Feb-09 06:30N 51°05' E 001°30'9 8.5
2018-Feb-09 05:30N 51°11' E 001°40'1711.0
2018-Feb-09 04:00N 51°24' E 001°55'612.7
2018-Feb-09 03:30N 51°29' E 002°02'713.1
2018-Feb-09 03:01N 51°34' E 002°09'713.4
2018-Feb-09 02:30N 51°39' E 002°16'8412.0
2018-Feb-08 19:30N 52°31' E 004°03'612.5
2018-Feb-08 19:00N 52°31' E 004°13'713.2
2018-Feb-08 18:30N 52°30' E 004°24'14 7.0
2018-Feb-08 16:30N 52°26' E 004°46'3 0.8
2018-Feb-08 12:30N 52°25' E 004°51'  

Dump ship's entire track history